sensor_id;sensor_type;location;lat;lon;timestamp;temperature;humidity
1379;DHT22;683;48.738;9.226;2022-09-09T00:01:05;12.80;99.90
1379;DHT22;683;48.738;9.226;2022-09-09T00:03:42;12.90;99.90
1379;DHT22;683;48.738;9.226;2022-09-09T00:06:18;12.80;99.90
1379;DHT22;683;48.738;9.226;2022-09-09T00:08:57;12.80;99.90
1379;DHT22;683;48.738;9.226;2022-09-09T00:11:32;12.70;99.90
1379;DHT22;683;48.738;9.226;2022-09-09T00:14:03;12.70;99.90
1379;DHT22;683;48.738;9.226;2022-09-09T00:16:36;12.80;99.90
1379;DHT22;683;48.738;9.226;2022-09-09T00:19:07;12.90;99.90
1379;DHT22;683;48.738;9.226;2022-09-09T00:21:38;12.90;99.90
1379;DHT22;683;48.738;9.226;2022-09-09T00:24:22;12.90;99.90
1379;DHT22;683;48.738;9.226;2022-09-09T00:26:56;13.00;99.90
1379;DHT22;683;48.738;9.226;2022-09-09T00:29:32;13.10;99.90
1379;DHT22;683;48.738;9.226;2022-09-09T00:32:11;13.30;99.90
1379;DHT22;683;48.738;9.226;2022-09-09T00:34:46;13.30;99.90
1379;DHT22;683;48.738;9.226;2022-09-09T00:37:15;13.40;99.90
1379;DHT22;683;48.738;9.226;2022-09-09T00:39:45;13.40;99.90
1379;DHT22;683;48.738;9.226;2022-09-09T00:42:18;13.40;99.90
1379;DHT22;683;48.738;9.226;2022-09-09T00:44:53;13.40;99.90
1379;DHT22;683;48.738;9.226;2022-09-09T00:47:41;13.50;99.90
1379;DHT22;683;48.738;9.226;2022-09-09T00:50:24;13.50;99.90
1379;DHT22;683;48.738;9.226;2022-09-09T00:53:02;13.60;99.90
1379;DHT22;683;48.738;9.226;2022-09-09T00:55:39;13.60;99.90
1379;DHT22;683;48.738;9.226;2022-09-09T00:58:10;13.80;99.90
1379;DHT22;683;48.738;9.226;2022-09-09T01:00:43;13.80;99.90
1379;DHT22;683;48.738;9.226;2022-09-09T01:03:22;13.80;99.90
1379;DHT22;683;48.738;9.226;2022-09-09T01:06:01;13.80;99.90
1379;DHT22;683;48.738;9.226;2022-09-09T01:08:43;13.80;99.90
1379;DHT22;683;48.738;9.226;2022-09-09T01:11:21;13.80;99.90
1379;DHT22;683;48.738;9.226;2022-09-09T01:13:55;13.80;99.90
1379;DHT22;683;48.738;9.226;2022-09-09T01:16:30;13.80;99.90
1379;DHT22;683;48.738;9.226;2022-09-09T01:19:00;13.80;99.90
1379;DHT22;683;48.738;9.226;2022-09-09T01:21:38;13.80;99.90
1379;DHT22;683;48.738;9.226;2022-09-09T01:24:22;13.70;99.90
1379;DHT22;683;48.738;9.226;2022-09-09T01:27:22;13.70;99.90
1379;DHT22;683;48.738;9.226;2022-09-09T01:29:51;13.80;99.90
1379;DHT22;683;48.738;9.226;2022-09-09T01:32:40;13.90;99.90
1379;DHT22;683;48.738;9.226;2022-09-09T01:35:12;14.00;99.90
1379;DHT22;683;48.738;9.226;2022-09-09T01:37:42;14.10;99.90
1379;DHT22;683;48.738;9.226;2022-09-09T01:40:10;14.10;99.90
1379;DHT22;683;48.738;9.226;2022-09-09T01:42:40;14.20;99.90
1379;DHT22;683;48.738;9.226;2022-09-09T01:45:09;14.10;99.90
1379;DHT22;683;48.738;9.226;2022-09-09T01:47:37;14.10;99.90
1379;DHT22;683;48.738;9.226;2022-09-09T01:50:15;14.10;99.90
1379;DHT22;683;48.738;9.226;2022-09-09T01:52:45;14.10;99.90
1379;DHT22;683;48.738;9.226;2022-09-09T01:55:16;14.10;99.90
1379;DHT22;683;48.738;9.226;2022-09-09T01:57:50;14.10;99.90
1379;DHT22;683;48.738;9.226;2022-09-09T02:00:19;14.10;99.90
1379;DHT22;683;48.738;9.226;2022-09-09T02:03:00;14.10;99.90
1379;DHT22;683;48.738;9.226;2022-09-09T02:05:40;14.10;99.90
1379;DHT22;683;48.738;9.226;2022-09-09T02:08:20;14.00;99.90
1379;DHT22;683;48.738;9.226;2022-09-09T02:10:58;14.00;99.90
1379;DHT22;683;48.738;9.226;2022-09-09T02:13:38;13.90;99.90
1379;DHT22;683;48.738;9.226;2022-09-09T02:16:14;13.90;99.90
1379;DHT22;683;48.738;9.226;2022-09-09T02:18:50;13.90;99.90
1379;DHT22;683;48.738;9.226;2022-09-09T02:21:24;13.90;99.90
1379;DHT22;683;48.738;9.226;2022-09-09T02:23:56;13.90;99.90
1379;DHT22;683;48.738;9.226;2022-09-09T02:26:27;13.80;99.90
1379;DHT22;683;48.738;9.226;2022-09-09T02:29:05;13.70;99.90
1379;DHT22;683;48.738;9.226;2022-09-09T02:31:36;13.70;99.90
1379;DHT22;683;48.738;9.226;2022-09-09T02:34:12;13.70;99.90
1379;DHT22;683;48.738;9.226;2022-09-09T02:36:41;13.60;99.90
1379;DHT22;683;48.738;9.226;2022-09-09T02:39:10;13.60;99.90
1379;DHT22;683;48.738;9.226;2022-09-09T02:41:41;13.50;99.90
1379;DHT22;683;48.738;9.226;2022-09-09T02:44:12;13.50;99.90
1379;DHT22;683;48.738;9.226;2022-09-09T02:47:11;13.50;99.90
1379;DHT22;683;48.738;9.226;2022-09-09T02:49:48;13.40;99.90
1379;DHT22;683;48.738;9.226;2022-09-09T02:52:25;13.30;99.90
1379;DHT22;683;48.738;9.226;2022-09-09T02:54:57;13.20;99.90
1379;DHT22;683;48.738;9.226;2022-09-09T02:57:28;13.10;99.90
1379;DHT22;683;48.738;9.226;2022-09-09T02:59:59;13.10;99.90
1379;DHT22;683;48.738;9.226;2022-09-09T03:02:32;13.00;99.90
1379;DHT22;683;48.738;9.226;2022-09-09T03:05:05;12.90;99.90
1379;DHT22;683;48.738;9.226;2022-09-09T03:07:33;12.90;99.90
1379;DHT22;683;48.738;9.226;2022-09-09T03:10:02;12.90;99.90
1379;DHT22;683;48.738;9.226;2022-09-09T03:12:29;12.90;99.90
1379;DHT22;683;48.738;9.226;2022-09-09T03:15:00;13.00;99.90
1379;DHT22;683;48.738;9.226;2022-09-09T03:17:28;13.10;99.90
1379;DHT22;683;48.738;9.226;2022-09-09T03:19:57;13.10;99.90
1379;DHT22;683;48.738;9.226;2022-09-09T03:22:25;13.20;99.90
1379;DHT22;683;48.738;9.226;2022-09-09T03:24:55;13.30;99.90
1379;DHT22;683;48.738;9.226;2022-09-09T03:27:22;13.30;99.90
1379;DHT22;683;48.738;9.226;2022-09-09T03:29:51;13.20;99.90
1379;DHT22;683;48.738;9.226;2022-09-09T03:32:24;13.20;99.90
1379;DHT22;683;48.738;9.226;2022-09-09T03:34:54;13.10;99.90
1379;DHT22;683;48.738;9.226;2022-09-09T03:37:22;13.00;99.90
1379;DHT22;683;48.738;9.226;2022-09-09T03:39:50;13.10;99.90
1379;DHT22;683;48.738;9.226;2022-09-09T03:42:22;13.10;99.90
1379;DHT22;683;48.738;9.226;2022-09-09T03:44:52;13.10;99.90
1379;DHT22;683;48.738;9.226;2022-09-09T03:47:25;13.10;99.90
1379;DHT22;683;48.738;9.226;2022-09-09T03:49:57;13.10;99.90
1379;DHT22;683;48.738;9.226;2022-09-09T03:52:25;12.90;99.90
1379;DHT22;683;48.738;9.226;2022-09-09T03:54:53;12.90;99.90
1379;DHT22;683;48.738;9.226;2022-09-09T03:57:23;13.00;99.90
1379;DHT22;683;48.738;9.226;2022-09-09T03:59:50;13.00;99.90
1379;DHT22;683;48.738;9.226;2022-09-09T04:02:18;13.10;99.90
1379;DHT22;683;48.738;9.226;2022-09-09T04:04:47;13.10;99.90
1379;DHT22;683;48.738;9.226;2022-09-09T04:07:15;13.10;99.90
1379;DHT22;683;48.738;9.226;2022-09-09T04:09:43;13.10;99.90
1379;DHT22;683;48.738;9.226;2022-09-09T04:12:11;13.00;99.90
1379;DHT22;683;48.738;9.226;2022-09-09T04:14:39;12.90;99.90
1379;DHT22;683;48.738;9.226;2022-09-09T04:17:07;12.90;99.90
1379;DHT22;683;48.738;9.226;2022-09-09T04:19:36;12.80;99.90
1379;DHT22;683;48.738;9.226;2022-09-09T04:22:05;12.70;99.90
1379;DHT22;683;48.738;9.226;2022-09-09T04:24:33;12.60;99.90
1379;DHT22;683;48.738;9.226;2022-09-09T04:27:01;12.70;99.90
1379;DHT22;683;48.738;9.226;2022-09-09T04:29:30;12.80;99.90
1379;DHT22;683;48.738;9.226;2022-09-09T04:31:58;13.00;99.90
1379;DHT22;683;48.738;9.226;2022-09-09T04:34:25;13.00;99.90
1379;DHT22;683;48.738;9.226;2022-09-09T04:36:54;13.10;99.90
1379;DHT22;683;48.738;9.226;2022-09-09T04:39:24;13.10;99.90
1379;DHT22;683;48.738;9.226;2022-09-09T04:41:51;13.10;99.90
1379;DHT22;683;48.738;9.226;2022-09-09T04:44:21;13.10;99.90
1379;DHT22;683;48.738;9.226;2022-09-09T04:46:49;13.20;99.90
1379;DHT22;683;48.738;9.226;2022-09-09T04:49:17;13.20;99.90
1379;DHT22;683;48.738;9.226;2022-09-09T04:51:44;13.20;99.90
1379;DHT22;683;48.738;9.226;2022-09-09T04:54:13;13.20;99.90
1379;DHT22;683;48.738;9.226;2022-09-09T04:56:44;13.20;99.90
1379;DHT22;683;48.738;9.226;2022-09-09T04:59:12;13.20;99.90
1379;DHT22;683;48.738;9.226;2022-09-09T05:01:44;13.10;99.90
1379;DHT22;683;48.738;9.226;2022-09-09T05:04:12;13.10;99.90
1379;DHT22;683;48.738;9.226;2022-09-09T05:06:41;13.10;99.90
1379;DHT22;683;48.738;9.226;2022-09-09T05:09:11;13.10;99.90
1379;DHT22;683;48.738;9.226;2022-09-09T05:11:39;13.00;99.90
1379;DHT22;683;48.738;9.226;2022-09-09T05:14:18;13.00;99.90
1379;DHT22;683;48.738;9.226;2022-09-09T05:16:46;13.10;99.90
1379;DHT22;683;48.738;9.226;2022-09-09T05:19:16;13.10;99.90
1379;DHT22;683;48.738;9.226;2022-09-09T05:21:49;13.20;99.90
1379;DHT22;683;48.738;9.226;2022-09-09T05:24:21;13.20;99.90
1379;DHT22;683;48.738;9.226;2022-09-09T05:26:52;13.30;99.90
1379;DHT22;683;48.738;9.226;2022-09-09T05:29:21;13.40;99.90
1379;DHT22;683;48.738;9.226;2022-09-09T05:31:49;13.50;99.90
1379;DHT22;683;48.738;9.226;2022-09-09T05:34:20;13.60;99.90
1379;DHT22;683;48.738;9.226;2022-09-09T05:36:50;13.80;99.90
1379;DHT22;683;48.738;9.226;2022-09-09T05:39:21;13.90;99.90
1379;DHT22;683;48.738;9.226;2022-09-09T05:41:48;14.00;99.90
1379;DHT22;683;48.738;9.226;2022-09-09T05:44:17;14.10;99.90
1379;DHT22;683;48.738;9.226;2022-09-09T05:46:47;14.20;99.90
1379;DHT22;683;48.738;9.226;2022-09-09T05:49:16;14.30;99.90
1379;DHT22;683;48.738;9.226;2022-09-09T05:51:44;14.30;99.90
1379;DHT22;683;48.738;9.226;2022-09-09T05:54:14;14.40;99.90
1379;DHT22;683;48.738;9.226;2022-09-09T05:56:45;14.50;99.90
1379;DHT22;683;48.738;9.226;2022-09-09T05:59:13;14.50;99.90
1379;DHT22;683;48.738;9.226;2022-09-09T06:01:41;14.50;99.90
1379;DHT22;683;48.738;9.226;2022-09-09T06:04:24;14.60;99.90
1379;DHT22;683;48.738;9.226;2022-09-09T06:06:52;14.60;99.90
1379;DHT22;683;48.738;9.226;2022-09-09T06:09:22;14.60;99.90
1379;DHT22;683;48.738;9.226;2022-09-09T06:11:49;14.70;99.90
1379;DHT22;683;48.738;9.226;2022-09-09T06:14:19;14.80;99.90
1379;DHT22;683;48.738;9.226;2022-09-09T06:16:49;14.80;99.90
1379;DHT22;683;48.738;9.226;2022-09-09T06:19:28;14.80;99.90
1379;DHT22;683;48.738;9.226;2022-09-09T06:21:58;14.90;99.90
1379;DHT22;683;48.738;9.226;2022-09-09T06:24:28;15.00;99.90
1379;DHT22;683;48.738;9.226;2022-09-09T06:26:57;15.10;99.90
1379;DHT22;683;48.738;9.226;2022-09-09T06:29:28;15.10;99.90
1379;DHT22;683;48.738;9.226;2022-09-09T06:31:56;15.10;99.90
1379;DHT22;683;48.738;9.226;2022-09-09T06:34:28;15.20;99.90
1379;DHT22;683;48.738;9.226;2022-09-09T06:36:58;15.30;99.90
1379;DHT22;683;48.738;9.226;2022-09-09T06:39:31;15.30;99.90
1379;DHT22;683;48.738;9.226;2022-09-09T06:42:00;15.40;99.90
1379;DHT22;683;48.738;9.226;2022-09-09T06:44:43;15.50;99.90
1379;DHT22;683;48.738;9.226;2022-09-09T06:47:17;15.50;99.90
1379;DHT22;683;48.738;9.226;2022-09-09T06:49:47;15.60;99.90
1379;DHT22;683;48.738;9.226;2022-09-09T06:52:16;15.70;99.90
1379;DHT22;683;48.738;9.226;2022-09-09T06:54:44;15.80;99.90
1379;DHT22;683;48.738;9.226;2022-09-09T06:57:12;15.80;99.90
1379;DHT22;683;48.738;9.226;2022-09-09T06:59:40;16.10;99.90
1379;DHT22;683;48.738;9.226;2022-09-09T07:02:08;16.30;99.90
1379;DHT22;683;48.738;9.226;2022-09-09T07:04:36;16.30;99.90
1379;DHT22;683;48.738;9.226;2022-09-09T07:07:05;16.40;99.90
1379;DHT22;683;48.738;9.226;2022-09-09T07:09:34;16.40;99.90
1379;DHT22;683;48.738;9.226;2022-09-09T07:12:02;16.70;99.90
1379;DHT22;683;48.738;9.226;2022-09-09T07:14:33;16.80;99.90
1379;DHT22;683;48.738;9.226;2022-09-09T07:17:05;17.00;99.90
1379;DHT22;683;48.738;9.226;2022-09-09T07:19:37;17.10;99.90
1379;DHT22;683;48.738;9.226;2022-09-09T07:22:07;17.20;99.90
1379;DHT22;683;48.738;9.226;2022-09-09T07:24:37;17.40;99.90
1379;DHT22;683;48.738;9.226;2022-09-09T07:27:05;17.60;99.90
1379;DHT22;683;48.738;9.226;2022-09-09T07:29:33;17.70;99.90
1379;DHT22;683;48.738;9.226;2022-09-09T07:32:01;17.90;99.90
1379;DHT22;683;48.738;9.226;2022-09-09T07:34:34;18.00;99.90
1379;DHT22;683;48.738;9.226;2022-09-09T07:37:02;18.00;99.90
1379;DHT22;683;48.738;9.226;2022-09-09T07:39:33;17.90;99.90
1379;DHT22;683;48.738;9.226;2022-09-09T07:42:01;17.80;99.90
1379;DHT22;683;48.738;9.226;2022-09-09T07:44:31;17.60;99.90
1379;DHT22;683;48.738;9.226;2022-09-09T07:47:08;17.60;99.90
1379;DHT22;683;48.738;9.226;2022-09-09T07:49:43;18.00;99.90
1379;DHT22;683;48.738;9.226;2022-09-09T07:52:14;18.20;99.90
1379;DHT22;683;48.738;9.226;2022-09-09T07:54:46;18.30;99.90
1379;DHT22;683;48.738;9.226;2022-09-09T07:57:15;18.00;99.90
1379;DHT22;683;48.738;9.226;2022-09-09T07:59:42;18.00;99.90
1379;DHT22;683;48.738;9.226;2022-09-09T08:02:12;18.10;99.90
1379;DHT22;683;48.738;9.226;2022-09-09T08:04:40;18.20;99.90
1379;DHT22;683;48.738;9.226;2022-09-09T08:07:08;18.30;99.90
1379;DHT22;683;48.738;9.226;2022-09-09T08:09:43;18.50;99.90
1379;DHT22;683;48.738;9.226;2022-09-09T08:12:19;18.50;99.80
1379;DHT22;683;48.738;9.226;2022-09-09T08:14:46;18.60;99.90
1379;DHT22;683;48.738;9.226;2022-09-09T08:17:15;18.30;99.90
1379;DHT22;683;48.738;9.226;2022-09-09T08:19:43;18.10;99.90
1379;DHT22;683;48.738;9.226;2022-09-09T08:22:16;18.20;99.90
1379;DHT22;683;48.738;9.226;2022-09-09T08:24:44;18.30;99.90
1379;DHT22;683;48.738;9.226;2022-09-09T08:27:13;18.40;99.90
1379;DHT22;683;48.738;9.226;2022-09-09T08:29:43;18.60;99.90
1379;DHT22;683;48.738;9.226;2022-09-09T08:32:11;18.60;99.60
1379;DHT22;683;48.738;9.226;2022-09-09T08:34:39;18.60;99.90
1379;DHT22;683;48.738;9.226;2022-09-09T08:37:14;18.70;99.50
1379;DHT22;683;48.738;9.226;2022-09-09T08:39:43;19.00;99.50
1379;DHT22;683;48.738;9.226;2022-09-09T08:42:28;19.20;98.70
1379;DHT22;683;48.738;9.226;2022-09-09T08:45:13;19.30;98.20
1379;DHT22;683;48.738;9.226;2022-09-09T08:47:51;19.60;98.30
1379;DHT22;683;48.738;9.226;2022-09-09T08:50:26;19.80;96.80
1379;DHT22;683;48.738;9.226;2022-09-09T08:53:05;19.50;96.10
1379;DHT22;683;48.738;9.226;2022-09-09T08:55:43;19.60;96.60
1379;DHT22;683;48.738;9.226;2022-09-09T08:58:14;19.60;96.30
1379;DHT22;683;48.738;9.226;2022-09-09T09:01:02;19.70;95.70
1379;DHT22;683;48.738;9.226;2022-09-09T09:03:40;19.90;95.00
1379;DHT22;683;48.738;9.226;2022-09-09T09:06:24;20.20;94.50
1379;DHT22;683;48.738;9.226;2022-09-09T09:09:00;20.60;93.70
1379;DHT22;683;48.738;9.226;2022-09-09T09:11:35;21.10;93.60
1379;DHT22;683;48.738;9.226;2022-09-09T09:14:09;21.30;92.30
1379;DHT22;683;48.738;9.226;2022-09-09T09:16:43;21.60;91.30
1379;DHT22;683;48.738;9.226;2022-09-09T09:19:16;21.70;90.50
1379;DHT22;683;48.738;9.226;2022-09-09T09:21:50;22.20;89.70
1379;DHT22;683;48.738;9.226;2022-09-09T09:24:20;22.50;87.30
1379;DHT22;683;48.738;9.226;2022-09-09T09:26:50;22.40;87.30
1379;DHT22;683;48.738;9.226;2022-09-09T09:29:21;21.90;88.00
1379;DHT22;683;48.738;9.226;2022-09-09T09:31:53;21.20;88.20
1379;DHT22;683;48.738;9.226;2022-09-09T09:34:23;19.90;89.30
1379;DHT22;683;48.738;9.226;2022-09-09T09:36:54;17.90;99.90
1379;DHT22;683;48.738;9.226;2022-09-09T09:39:26;16.60;99.90
1379;DHT22;683;48.738;9.226;2022-09-09T09:41:57;15.80;99.90
1379;DHT22;683;48.738;9.226;2022-09-09T09:44:29;15.30;99.90
1379;DHT22;683;48.738;9.226;2022-09-09T09:47:11;14.80;99.90
1379;DHT22;683;48.738;9.226;2022-09-09T09:49:54;14.80;99.90
1379;DHT22;683;48.738;9.226;2022-09-09T09:52:24;15.00;99.90
1379;DHT22;683;48.738;9.226;2022-09-09T09:54:53;15.20;99.90
1379;DHT22;683;48.738;9.226;2022-09-09T09:57:24;15.50;99.90
1379;DHT22;683;48.738;9.226;2022-09-09T10:00:02;15.60;99.90
1379;DHT22;683;48.738;9.226;2022-09-09T10:02:43;15.80;99.90
1379;DHT22;683;48.738;9.226;2022-09-09T10:05:19;16.10;99.90
1379;DHT22;683;48.738;9.226;2022-09-09T10:08:04;16.40;99.90
1379;DHT22;683;48.738;9.226;2022-09-09T10:10:52;16.70;99.90
1379;DHT22;683;48.738;9.226;2022-09-09T10:13:27;16.90;99.90
1379;DHT22;683;48.738;9.226;2022-09-09T10:16:15;17.10;99.90
1379;DHT22;683;48.738;9.226;2022-09-09T10:18:59;17.30;99.90
1379;DHT22;683;48.738;9.226;2022-09-09T10:21:51;17.30;99.90
1379;DHT22;683;48.738;9.226;2022-09-09T10:24:49;17.50;99.90
1379;DHT22;683;48.738;9.226;2022-09-09T10:27:23;17.80;99.90
1379;DHT22;683;48.738;9.226;2022-09-09T10:30:04;18.00;99.90
1379;DHT22;683;48.738;9.226;2022-09-09T10:32:41;18.30;99.90
1379;DHT22;683;48.738;9.226;2022-09-09T10:35:34;18.70;99.90
1379;DHT22;683;48.738;9.226;2022-09-09T10:38:21;18.90;99.90
1379;DHT22;683;48.738;9.226;2022-09-09T10:41:12;19.30;99.90
1379;DHT22;683;48.738;9.226;2022-09-09T10:43:55;19.80;99.90
1379;DHT22;683;48.738;9.226;2022-09-09T10:46:36;20.30;98.90
1379;DHT22;683;48.738;9.226;2022-09-09T10:49:16;20.80;98.10
1379;DHT22;683;48.738;9.226;2022-09-09T10:51:54;21.00;99.90
1379;DHT22;683;48.738;9.226;2022-09-09T10:54:36;21.60;97.40
1379;DHT22;683;48.738;9.226;2022-09-09T10:57:13;22.30;96.40
1379;DHT22;683;48.738;9.226;2022-09-09T10:59:44;22.60;92.60
1379;DHT22;683;48.738;9.226;2022-09-09T11:02:18;22.80;92.30
1379;DHT22;683;48.738;9.226;2022-09-09T11:04:50;22.80;91.20
1379;DHT22;683;48.738;9.226;2022-09-09T11:07:47;22.70;91.60
1379;DHT22;683;48.738;9.226;2022-09-09T11:10:24;22.40;89.40
1379;DHT22;683;48.738;9.226;2022-09-09T11:12:59;22.20;90.80
1379;DHT22;683;48.738;9.226;2022-09-09T11:15:31;22.30;90.20
1379;DHT22;683;48.738;9.226;2022-09-09T11:18:04;22.30;91.30
1379;DHT22;683;48.738;9.226;2022-09-09T11:20:32;22.40;89.80
1379;DHT22;683;48.738;9.226;2022-09-09T11:23:04;22.30;89.70
1379;DHT22;683;48.738;9.226;2022-09-09T11:25:36;22.30;89.40
1379;DHT22;683;48.738;9.226;2022-09-09T11:28:26;22.00;88.00
1379;DHT22;683;48.738;9.226;2022-09-09T11:31:06;21.50;89.90
1379;DHT22;683;48.738;9.226;2022-09-09T11:33:54;20.90;91.40
1379;DHT22;683;48.738;9.226;2022-09-09T11:36:43;20.20;88.60
1379;DHT22;683;48.738;9.226;2022-09-09T11:42:18;19.30;91.10
1379;DHT22;683;48.738;9.226;2022-09-09T11:44:46;18.80;91.70
1379;DHT22;683;48.738;9.226;2022-09-09T11:47:23;18.70;91.80
1379;DHT22;683;48.738;9.226;2022-09-09T11:49:55;18.80;90.00
1379;DHT22;683;48.738;9.226;2022-09-09T11:52:37;19.20;89.10
1379;DHT22;683;48.738;9.226;2022-09-09T11:55:25;19.40;86.80
1379;DHT22;683;48.738;9.226;2022-09-09T11:57:57;19.90;85.80
1379;DHT22;683;48.738;9.226;2022-09-09T12:00:35;20.30;86.20
1379;DHT22;683;48.738;9.226;2022-09-09T12:03:03;20.70;82.70
1379;DHT22;683;48.738;9.226;2022-09-09T12:05:40;20.70;80.60
1379;DHT22;683;48.738;9.226;2022-09-09T12:08:10;21.10;79.60
1379;DHT22;683;48.738;9.226;2022-09-09T12:10:40;21.40;76.60
1379;DHT22;683;48.738;9.226;2022-09-09T12:13:15;21.30;75.70
1379;DHT22;683;48.738;9.226;2022-09-09T12:15:48;21.10;77.10
1379;DHT22;683;48.738;9.226;2022-09-09T12:18:23;20.40;78.30
1379;DHT22;683;48.738;9.226;2022-09-09T12:20:57;20.20;80.00
1379;DHT22;683;48.738;9.226;2022-09-09T12:23:36;20.30;79.30
1379;DHT22;683;48.738;9.226;2022-09-09T12:26:29;20.60;78.10
1379;DHT22;683;48.738;9.226;2022-09-09T12:29:10;20.90;78.50
1379;DHT22;683;48.738;9.226;2022-09-09T12:31:48;21.60;77.90
1379;DHT22;683;48.738;9.226;2022-09-09T12:34:29;22.50;74.70
1379;DHT22;683;48.738;9.226;2022-09-09T12:37:03;22.80;71.10
1379;DHT22;683;48.738;9.226;2022-09-09T12:39:36;23.90;69.90
1379;DHT22;683;48.738;9.226;2022-09-09T12:42:19;24.50;66.00
1379;DHT22;683;48.738;9.226;2022-09-09T12:44:52;25.00;63.70
1379;DHT22;683;48.738;9.226;2022-09-09T12:47:23;25.60;61.60
1379;DHT22;683;48.738;9.226;2022-09-09T12:49:52;24.70;61.20
1379;DHT22;683;48.738;9.226;2022-09-09T12:52:26;24.00;62.80
1379;DHT22;683;48.738;9.226;2022-09-09T12:54:57;23.00;65.70
1379;DHT22;683;48.738;9.226;2022-09-09T12:57:32;22.40;68.30
1379;DHT22;683;48.738;9.226;2022-09-09T13:00:06;22.90;68.30
1379;DHT22;683;48.738;9.226;2022-09-09T13:02:36;23.20;66.90
1379;DHT22;683;48.738;9.226;2022-09-09T13:05:15;23.80;65.80
1379;DHT22;683;48.738;9.226;2022-09-09T13:07:43;23.50;65.50
1379;DHT22;683;48.738;9.226;2022-09-09T13:10:13;22.60;67.20
1379;DHT22;683;48.738;9.226;2022-09-09T13:12:42;21.80;70.60
1379;DHT22;683;48.738;9.226;2022-09-09T13:15:18;21.50;72.80
1379;DHT22;683;48.738;9.226;2022-09-09T13:17:53;21.30;71.50
1379;DHT22;683;48.738;9.226;2022-09-09T13:20:22;21.30;71.70
1379;DHT22;683;48.738;9.226;2022-09-09T13:22:52;21.70;71.90
1379;DHT22;683;48.738;9.226;2022-09-09T13:25:23;22.40;70.20
1379;DHT22;683;48.738;9.226;2022-09-09T13:27:57;22.80;69.30
1379;DHT22;683;48.738;9.226;2022-09-09T13:30:27;23.50;66.60
1379;DHT22;683;48.738;9.226;2022-09-09T13:33:02;24.90;65.90
1379;DHT22;683;48.738;9.226;2022-09-09T13:35:31;27.00;61.40
1379;DHT22;683;48.738;9.226;2022-09-09T13:37:59;28.20;55.80
1379;DHT22;683;48.738;9.226;2022-09-09T13:40:33;29.10;54.20
1379;DHT22;683;48.738;9.226;2022-09-09T13:43:04;29.10;53.60
1379;DHT22;683;48.738;9.226;2022-09-09T13:45:32;28.00;54.10
1379;DHT22;683;48.738;9.226;2022-09-09T13:48:09;27.80;52.90
1379;DHT22;683;48.738;9.226;2022-09-09T13:50:38;26.80;54.50
1379;DHT22;683;48.738;9.226;2022-09-09T13:53:07;25.60;56.60
1379;DHT22;683;48.738;9.226;2022-09-09T13:55:36;25.10;58.40
1379;DHT22;683;48.738;9.226;2022-09-09T13:58:14;26.80;57.40
1379;DHT22;683;48.738;9.226;2022-09-09T14:00:43;28.20;53.70
1379;DHT22;683;48.738;9.226;2022-09-09T14:03:10;28.90;52.90
1379;DHT22;683;48.738;9.226;2022-09-09T14:05:38;29.10;51.50
1379;DHT22;683;48.738;9.226;2022-09-09T14:08:22;29.00;52.70
1379;DHT22;683;48.738;9.226;2022-09-09T14:10:51;30.40;51.00
1379;DHT22;683;48.738;9.226;2022-09-09T14:13:23;30.40;50.60
1379;DHT22;683;48.738;9.226;2022-09-09T14:15:51;31.90;47.40
1379;DHT22;683;48.738;9.226;2022-09-09T14:18:19;31.80;47.00
1379;DHT22;683;48.738;9.226;2022-09-09T14:20:48;32.20;45.90
1379;DHT22;683;48.738;9.226;2022-09-09T14:23:16;32.40;44.60
1379;DHT22;683;48.738;9.226;2022-09-09T14:25:45;32.90;42.60
1379;DHT22;683;48.738;9.226;2022-09-09T14:28:13;32.70;41.40
1379;DHT22;683;48.738;9.226;2022-09-09T14:30:43;32.20;41.70
1379;DHT22;683;48.738;9.226;2022-09-09T14:33:14;31.60;42.60
1379;DHT22;683;48.738;9.226;2022-09-09T14:35:46;29.50;45.20
1379;DHT22;683;48.738;9.226;2022-09-09T14:38:16;29.00;47.50
1379;DHT22;683;48.738;9.226;2022-09-09T14:40:45;29.20;47.30
1379;DHT22;683;48.738;9.226;2022-09-09T14:43:13;29.80;45.30
1379;DHT22;683;48.738;9.226;2022-09-09T14:45:43;29.80;44.50
1379;DHT22;683;48.738;9.226;2022-09-09T14:48:11;29.60;43.40
1379;DHT22;683;48.738;9.226;2022-09-09T14:50:39;29.40;44.00
1379;DHT22;683;48.738;9.226;2022-09-09T14:53:07;29.10;44.00
1379;DHT22;683;48.738;9.226;2022-09-09T14:55:36;29.60;44.00
1379;DHT22;683;48.738;9.226;2022-09-09T14:58:05;29.70;42.20
1379;DHT22;683;48.738;9.226;2022-09-09T15:00:33;28.80;44.20
1379;DHT22;683;48.738;9.226;2022-09-09T15:03:02;28.90;44.50
1379;DHT22;683;48.738;9.226;2022-09-09T15:05:29;29.40;44.00
1379;DHT22;683;48.738;9.226;2022-09-09T15:07:58;29.80;44.40
1379;DHT22;683;48.738;9.226;2022-09-09T15:10:25;29.50;43.70
1379;DHT22;683;48.738;9.226;2022-09-09T15:12:53;30.00;43.50
1379;DHT22;683;48.738;9.226;2022-09-09T15:15:21;30.40;42.80
1379;DHT22;683;48.738;9.226;2022-09-09T15:17:49;28.90;43.80
1379;DHT22;683;48.738;9.226;2022-09-09T15:20:18;28.50;45.20
1379;DHT22;683;48.738;9.226;2022-09-09T15:22:45;28.40;45.30
1379;DHT22;683;48.738;9.226;2022-09-09T15:25:13;28.90;45.90
1379;DHT22;683;48.738;9.226;2022-09-09T15:27:41;29.00;45.40
1379;DHT22;683;48.738;9.226;2022-09-09T15:30:09;28.80;45.50
1379;DHT22;683;48.738;9.226;2022-09-09T15:32:37;28.20;46.90
1379;DHT22;683;48.738;9.226;2022-09-09T15:35:06;27.10;48.00
1379;DHT22;683;48.738;9.226;2022-09-09T15:37:36;26.50;49.20
1379;DHT22;683;48.738;9.226;2022-09-09T15:40:04;26.40;49.90
1379;DHT22;683;48.738;9.226;2022-09-09T15:42:32;26.50;50.40
1379;DHT22;683;48.738;9.226;2022-09-09T15:45:00;25.90;50.90
1379;DHT22;683;48.738;9.226;2022-09-09T15:47:27;25.00;52.60
1379;DHT22;683;48.738;9.226;2022-09-09T15:49:55;24.10;53.90
1379;DHT22;683;48.738;9.226;2022-09-09T15:52:22;23.30;55.20
1379;DHT22;683;48.738;9.226;2022-09-09T15:54:51;22.60;55.90
1379;DHT22;683;48.738;9.226;2022-09-09T15:57:23;21.90;56.80
1379;DHT22;683;48.738;9.226;2022-09-09T15:59:51;21.40;57.60
1379;DHT22;683;48.738;9.226;2022-09-09T16:02:19;21.10;58.50
1379;DHT22;683;48.738;9.226;2022-09-09T16:04:47;20.90;58.90
1379;DHT22;683;48.738;9.226;2022-09-09T16:07:15;20.80;59.40
1379;DHT22;683;48.738;9.226;2022-09-09T16:09:42;20.60;59.60
1379;DHT22;683;48.738;9.226;2022-09-09T16:12:12;20.50;59.60
1379;DHT22;683;48.738;9.226;2022-09-09T16:14:40;20.40;60.40
1379;DHT22;683;48.738;9.226;2022-09-09T16:17:08;20.40;61.30
1379;DHT22;683;48.738;9.226;2022-09-09T16:19:37;20.20;61.90
1379;DHT22;683;48.738;9.226;2022-09-09T16:22:05;20.00;62.50
1379;DHT22;683;48.738;9.226;2022-09-09T16:24:33;20.00;63.20
1379;DHT22;683;48.738;9.226;2022-09-09T16:27:00;19.90;63.60
1379;DHT22;683;48.738;9.226;2022-09-09T16:29:29;19.80;64.10
1379;DHT22;683;48.738;9.226;2022-09-09T16:31:58;19.70;64.50
1379;DHT22;683;48.738;9.226;2022-09-09T16:34:26;19.70;64.90
1379;DHT22;683;48.738;9.226;2022-09-09T16:36:53;19.60;65.00
1379;DHT22;683;48.738;9.226;2022-09-09T16:39:22;19.70;65.70
1379;DHT22;683;48.738;9.226;2022-09-09T16:41:50;19.70;65.80
1379;DHT22;683;48.738;9.226;2022-09-09T16:44:18;19.70;64.80
1379;DHT22;683;48.738;9.226;2022-09-09T16:46:48;19.80;65.10
1379;DHT22;683;48.738;9.226;2022-09-09T16:49:18;19.80;65.70
1379;DHT22;683;48.738;9.226;2022-09-09T16:51:47;19.80;66.70
1379;DHT22;683;48.738;9.226;2022-09-09T16:54:16;19.70;67.60